<?xml version="1.0" encoding="UTF-8" standalone="no" ?>
<gpx xmlns="http://www.topografix.com/GPX/1/1" xmlns:xsi="http://www.w3.org/2001/XMLSchema-instance" xsi:schemaLocation="http://www.topografix.com/GPX/1/1 http://www.topografix.com/GPX/1/1/gpx.xsd" version="1.1" creator="VisuGPX - https://www.visugpx.com">
  <metadata>
    <name>2019-10-14-46-Catus</name>
    <desc><![CDATA[Belle randonnée de 11,5 km pour un peu plus de 200m de dénivelé positif.beaucoup de sous-bois avec un départ du lac, puis un passage par le village ou nous attend la premiere bonne montée. ]]></desc>
  </metadata>
  <trk>
    <name><![CDATA[10599318-Catus]]></name>
    <trkseg>
      <trkpt lat="44.55176" lon="1.32806">
        <ele>158</ele>
        <time>2019-10-09T17:00:28Z</time>
      </trkpt>
      <trkpt lat="44.55" lon="1.32749">
        <ele>163</ele>
        <time>2019-10-09T17:04:29Z</time>
      </trkpt>
      <trkpt lat="44.55075" lon="1.32878">
        <ele>169</ele>
        <time>2019-10-09T17:07:07Z</time>
      </trkpt>
      <trkpt lat="44.55202" lon="1.33026">
        <ele>173</ele>
        <time>2019-10-09T17:10:48Z</time>
      </trkpt>
      <trkpt lat="44.55283" lon="1.33146">
        <ele>173</ele>
        <time>2019-10-09T17:13:25Z</time>
      </trkpt>
      <trkpt lat="44.55401" lon="1.33396">
        <ele>183</ele>
        <time>2019-10-09T17:18:10Z</time>
      </trkpt>
      <trkpt lat="44.5549" lon="1.33565">
        <ele>172</ele>
        <time>2019-10-09T17:21:30Z</time>
      </trkpt>
      <trkpt lat="44.55525" lon="1.33682">
        <ele>170</ele>
        <time>2019-10-09T17:23:30Z</time>
      </trkpt>
      <trkpt lat="44.55581" lon="1.33759">
        <ele>168</ele>
        <time>2019-10-09T17:25:15Z</time>
      </trkpt>
      <trkpt lat="44.55687" lon="1.3372">
        <ele>172</ele>
        <time>2019-10-09T17:27:41Z</time>
      </trkpt>
      <trkpt lat="44.55668" lon="1.33641">
        <ele>171</ele>
        <time>2019-10-09T17:29:01Z</time>
      </trkpt>
      <trkpt lat="44.55721" lon="1.33603">
        <ele>184</ele>
        <time>2019-10-09T17:30:20Z</time>
      </trkpt>
      <trkpt lat="44.55735" lon="1.33511">
        <ele>197</ele>
        <time>2019-10-09T17:31:50Z</time>
      </trkpt>
      <trkpt lat="44.5577" lon="1.33466">
        <ele>204</ele>
        <time>2019-10-09T17:32:53Z</time>
      </trkpt>
      <trkpt lat="44.55857" lon="1.33429">
        <ele>219</ele>
        <time>2019-10-09T17:34:54Z</time>
      </trkpt>
      <trkpt lat="44.55982" lon="1.33313">
        <ele>237</ele>
        <time>2019-10-09T17:38:14Z</time>
      </trkpt>
      <trkpt lat="44.56174" lon="1.33286">
        <ele>247</ele>
        <time>2019-10-09T17:42:32Z</time>
      </trkpt>
      <trkpt lat="44.56342" lon="1.33295">
        <ele>248</ele>
        <time>2019-10-09T17:46:16Z</time>
      </trkpt>
      <trkpt lat="44.5639" lon="1.33277">
        <ele>250</ele>
        <time>2019-10-09T17:47:22Z</time>
      </trkpt>
      <trkpt lat="44.5655" lon="1.33297">
        <ele>254</ele>
        <time>2019-10-09T17:50:57Z</time>
      </trkpt>
      <trkpt lat="44.56684" lon="1.33436">
        <ele>261</ele>
        <time>2019-10-09T17:54:39Z</time>
      </trkpt>
      <trkpt lat="44.56825" lon="1.33386">
        <ele>251</ele>
        <time>2019-10-09T17:57:53Z</time>
      </trkpt>
      <trkpt lat="44.56887" lon="1.33358">
        <ele>253</ele>
        <time>2019-10-09T17:59:20Z</time>
      </trkpt>
      <trkpt lat="44.56926" lon="1.33297">
        <ele>257</ele>
        <time>2019-10-09T18:00:38Z</time>
      </trkpt>
      <trkpt lat="44.57045" lon="1.33256">
        <ele>270</ele>
        <time>2019-10-09T18:03:21Z</time>
      </trkpt>
      <trkpt lat="44.57064" lon="1.33318">
        <ele>271</ele>
        <time>2019-10-09T18:04:26Z</time>
      </trkpt>
      <trkpt lat="44.57166" lon="1.33437">
        <ele>274</ele>
        <time>2019-10-09T18:07:23Z</time>
      </trkpt>
      <trkpt lat="44.57244" lon="1.33584">
        <ele>277</ele>
        <time>2019-10-09T18:10:17Z</time>
      </trkpt>
      <trkpt lat="44.57242" lon="1.33626">
        <ele>280</ele>
        <time>2019-10-09T18:10:57Z</time>
      </trkpt>
      <trkpt lat="44.57202" lon="1.33714">
        <ele>280</ele>
        <time>2019-10-09T18:12:36Z</time>
      </trkpt>
      <trkpt lat="44.57163" lon="1.33878">
        <ele>277</ele>
        <time>2019-10-09T18:15:20Z</time>
      </trkpt>
      <trkpt lat="44.57219" lon="1.34024">
        <ele>279</ele>
        <time>2019-10-09T18:17:58Z</time>
      </trkpt>
      <trkpt lat="44.5721" lon="1.34126">
        <ele>276</ele>
        <time>2019-10-09T18:19:36Z</time>
      </trkpt>
      <trkpt lat="44.57243" lon="1.34264">
        <ele>272</ele>
        <time>2019-10-09T18:21:54Z</time>
      </trkpt>
      <trkpt lat="44.57299" lon="1.34306">
        <ele>272</ele>
        <time>2019-10-09T18:23:19Z</time>
      </trkpt>
      <trkpt lat="44.57263" lon="1.34367">
        <ele>271</ele>
        <time>2019-10-09T18:24:34Z</time>
      </trkpt>
      <trkpt lat="44.5722" lon="1.3445">
        <ele>267</ele>
        <time>2019-10-09T18:26:12Z</time>
      </trkpt>
      <trkpt lat="44.57191" lon="1.3457">
        <ele>264</ele>
        <time>2019-10-09T18:28:12Z</time>
      </trkpt>
      <trkpt lat="44.57164" lon="1.34722">
        <ele>262</ele>
        <time>2019-10-09T18:30:41Z</time>
      </trkpt>
      <trkpt lat="44.57053" lon="1.34735">
        <ele>265</ele>
        <time>2019-10-09T18:33:10Z</time>
      </trkpt>
      <trkpt lat="44.57032" lon="1.34797">
        <ele>264</ele>
        <time>2019-10-09T18:34:15Z</time>
      </trkpt>
      <trkpt lat="44.56977" lon="1.3485">
        <ele>263</ele>
        <time>2019-10-09T18:35:44Z</time>
      </trkpt>
      <trkpt lat="44.56897" lon="1.34888">
        <ele>260</ele>
        <time>2019-10-09T18:37:37Z</time>
      </trkpt>
      <trkpt lat="44.56838" lon="1.34886">
        <ele>262</ele>
        <time>2019-10-09T18:38:56Z</time>
      </trkpt>
      <trkpt lat="44.56811" lon="1.34848">
        <ele>264</ele>
        <time>2019-10-09T18:39:47Z</time>
      </trkpt>
      <trkpt lat="44.56788" lon="1.34909">
        <ele>260</ele>
        <time>2019-10-09T18:40:52Z</time>
      </trkpt>
      <trkpt lat="44.5671" lon="1.34917">
        <ele>253</ele>
        <time>2019-10-09T18:42:37Z</time>
      </trkpt>
      <trkpt lat="44.56708" lon="1.34953">
        <ele>244</ele>
        <time>2019-10-09T18:43:11Z</time>
      </trkpt>
      <trkpt lat="44.56792" lon="1.34992">
        <ele>238</ele>
        <time>2019-10-09T18:45:09Z</time>
      </trkpt>
      <trkpt lat="44.56906" lon="1.34992">
        <ele>232</ele>
        <time>2019-10-09T18:47:41Z</time>
      </trkpt>
      <trkpt lat="44.56961" lon="1.35014">
        <ele>226</ele>
        <time>2019-10-09T18:48:57Z</time>
      </trkpt>
      <trkpt lat="44.56825" lon="1.35045">
        <ele>222</ele>
        <time>2019-10-09T18:52:01Z</time>
      </trkpt>
      <trkpt lat="44.56732" lon="1.35075">
        <ele>212</ele>
        <time>2019-10-09T18:54:09Z</time>
      </trkpt>
      <trkpt lat="44.5659" lon="1.35075">
        <ele>204</ele>
        <time>2019-10-09T18:57:18Z</time>
      </trkpt>
      <trkpt lat="44.56598" lon="1.35122">
        <ele>206</ele>
        <time>2019-10-09T18:58:04Z</time>
      </trkpt>
      <trkpt lat="44.56544" lon="1.35157">
        <ele>206</ele>
        <time>2019-10-09T18:59:23Z</time>
      </trkpt>
      <trkpt lat="44.56534" lon="1.35209">
        <ele>211</ele>
        <time>2019-10-09T19:00:15Z</time>
      </trkpt>
      <trkpt lat="44.5644" lon="1.35101">
        <ele>207</ele>
        <time>2019-10-09T19:02:57Z</time>
      </trkpt>
      <trkpt lat="44.56381" lon="1.35003">
        <ele>195</ele>
        <time>2019-10-09T19:04:59Z</time>
      </trkpt>
      <trkpt lat="44.56328" lon="1.34962">
        <ele>199</ele>
        <time>2019-10-09T19:06:19Z</time>
      </trkpt>
      <trkpt lat="44.56106" lon="1.34954">
        <ele>197</ele>
        <time>2019-10-09T19:11:16Z</time>
      </trkpt>
      <trkpt lat="44.55954" lon="1.34938">
        <ele>188</ele>
        <time>2019-10-09T19:14:39Z</time>
      </trkpt>
      <trkpt lat="44.55874" lon="1.34962">
        <ele>178</ele>
        <time>2019-10-09T19:16:28Z</time>
      </trkpt>
      <trkpt lat="44.55704" lon="1.35064">
        <ele>178</ele>
        <time>2019-10-09T19:20:35Z</time>
      </trkpt>
      <trkpt lat="44.55677" lon="1.3505">
        <ele>180</ele>
        <time>2019-10-09T19:21:13Z</time>
      </trkpt>
      <trkpt lat="44.55629" lon="1.35045">
        <ele>186</ele>
        <time>2019-10-09T19:22:18Z</time>
      </trkpt>
      <trkpt lat="44.55623" lon="1.34864">
        <ele>188</ele>
        <time>2019-10-09T19:25:10Z</time>
      </trkpt>
      <trkpt lat="44.55595" lon="1.34682">
        <ele>186</ele>
        <time>2019-10-09T19:28:07Z</time>
      </trkpt>
      <trkpt lat="44.55577" lon="1.34426">
        <ele>180</ele>
        <time>2019-10-09T19:32:12Z</time>
      </trkpt>
      <trkpt lat="44.55557" lon="1.34328">
        <ele>182</ele>
        <time>2019-10-09T19:33:49Z</time>
      </trkpt>
      <trkpt lat="44.55401" lon="1.34296">
        <ele>203</ele>
        <time>2019-10-09T19:37:19Z</time>
      </trkpt>
      <trkpt lat="44.55371" lon="1.34285">
        <ele>209</ele>
        <time>2019-10-09T19:38:00Z</time>
      </trkpt>
      <trkpt lat="44.55289" lon="1.3431">
        <ele>223</ele>
        <time>2019-10-09T19:39:52Z</time>
      </trkpt>
      <trkpt lat="44.55274" lon="1.34211">
        <ele>231</ele>
        <time>2019-10-09T19:41:29Z</time>
      </trkpt>
      <trkpt lat="44.55222" lon="1.3417">
        <ele>240</ele>
        <time>2019-10-09T19:42:48Z</time>
      </trkpt>
      <trkpt lat="44.55123" lon="1.34251">
        <ele>251</ele>
        <time>2019-10-09T19:45:21Z</time>
      </trkpt>
      <trkpt lat="44.55009" lon="1.34429">
        <ele>250</ele>
        <time>2019-10-09T19:49:09Z</time>
      </trkpt>
      <trkpt lat="44.55006" lon="1.34493">
        <ele>250</ele>
        <time>2019-10-09T19:50:10Z</time>
      </trkpt>
      <trkpt lat="44.54964" lon="1.34556">
        <ele>250</ele>
        <time>2019-10-09T19:51:32Z</time>
      </trkpt>
      <trkpt lat="44.54905" lon="1.34561">
        <ele>245</ele>
        <time>2019-10-09T19:52:51Z</time>
      </trkpt>
      <trkpt lat="44.54883" lon="1.34603">
        <ele>246</ele>
        <time>2019-10-09T19:53:40Z</time>
      </trkpt>
      <trkpt lat="44.54858" lon="1.34615">
        <ele>246</ele>
        <time>2019-10-09T19:54:15Z</time>
      </trkpt>
      <trkpt lat="44.54852" lon="1.34447">
        <ele>234</ele>
        <time>2019-10-09T19:56:55Z</time>
      </trkpt>
      <trkpt lat="44.54828" lon="1.34322">
        <ele>225</ele>
        <time>2019-10-09T19:58:59Z</time>
      </trkpt>
      <trkpt lat="44.54739" lon="1.34243">
        <ele>218</ele>
        <time>2019-10-09T20:01:19Z</time>
      </trkpt>
      <trkpt lat="44.54682" lon="1.34159">
        <ele>212</ele>
        <time>2019-10-09T20:03:09Z</time>
      </trkpt>
      <trkpt lat="44.54664" lon="1.34083">
        <ele>208</ele>
        <time>2019-10-09T20:04:26Z</time>
      </trkpt>
      <trkpt lat="44.54606" lon="1.34023">
        <ele>205</ele>
        <time>2019-10-09T20:06:02Z</time>
      </trkpt>
      <trkpt lat="44.54596" lon="1.33936">
        <ele>203</ele>
        <time>2019-10-09T20:07:26Z</time>
      </trkpt>
      <trkpt lat="44.54595" lon="1.33876">
        <ele>203</ele>
        <time>2019-10-09T20:08:23Z</time>
      </trkpt>
      <trkpt lat="44.54559" lon="1.33798">
        <ele>199</ele>
        <time>2019-10-09T20:09:51Z</time>
      </trkpt>
      <trkpt lat="44.54551" lon="1.33735">
        <ele>197</ele>
        <time>2019-10-09T20:10:52Z</time>
      </trkpt>
      <trkpt lat="44.54566" lon="1.33578">
        <ele>190</ele>
        <time>2019-10-09T20:13:22Z</time>
      </trkpt>
      <trkpt lat="44.54575" lon="1.33511">
        <ele>189</ele>
        <time>2019-10-09T20:14:27Z</time>
      </trkpt>
      <trkpt lat="44.54542" lon="1.33432">
        <ele>196</ele>
        <time>2019-10-09T20:15:54Z</time>
      </trkpt>
      <trkpt lat="44.54538" lon="1.33312">
        <ele>196</ele>
        <time>2019-10-09T20:17:49Z</time>
      </trkpt>
      <trkpt lat="44.54545" lon="1.33195">
        <ele>195</ele>
        <time>2019-10-09T20:19:40Z</time>
      </trkpt>
      <trkpt lat="44.54561" lon="1.33025">
        <ele>191</ele>
        <time>2019-10-09T20:22:23Z</time>
      </trkpt>
      <trkpt lat="44.54546" lon="1.3295">
        <ele>187</ele>
        <time>2019-10-09T20:23:38Z</time>
      </trkpt>
      <trkpt lat="44.54505" lon="1.32893">
        <ele>177</ele>
        <time>2019-10-09T20:24:55Z</time>
      </trkpt>
      <trkpt lat="44.54522" lon="1.32779">
        <ele>175</ele>
        <time>2019-10-09T20:26:45Z</time>
      </trkpt>
      <trkpt lat="44.54511" lon="1.32698">
        <ele>168</ele>
        <time>2019-10-09T20:28:04Z</time>
      </trkpt>
      <trkpt lat="44.54473" lon="1.32643">
        <ele>164</ele>
        <time>2019-10-09T20:29:17Z</time>
      </trkpt>
      <trkpt lat="44.54441" lon="1.32604">
        <ele>160</ele>
        <time>2019-10-09T20:30:13Z</time>
      </trkpt>
      <trkpt lat="44.54518" lon="1.32548">
        <ele>158</ele>
        <time>2019-10-09T20:32:09Z</time>
      </trkpt>
      <trkpt lat="44.54556" lon="1.32624">
        <ele>162</ele>
        <time>2019-10-09T20:33:37Z</time>
      </trkpt>
      <trkpt lat="44.54632" lon="1.32693">
        <ele>168</ele>
        <time>2019-10-09T20:35:38Z</time>
      </trkpt>
      <trkpt lat="44.54755" lon="1.32705">
        <ele>168</ele>
        <time>2019-10-09T20:38:23Z</time>
      </trkpt>
      <trkpt lat="44.54847" lon="1.32745">
        <ele>166</ele>
        <time>2019-10-09T20:40:31Z</time>
      </trkpt>
      <trkpt lat="44.54933" lon="1.32728">
        <ele>163</ele>
        <time>2019-10-09T20:42:27Z</time>
      </trkpt>
      <trkpt lat="44.55183" lon="1.32791">
        <ele>159</ele>
        <time>2019-10-09T20:48:06Z</time>
      </trkpt>
    </trkseg>
  </trk>
</gpx>